Stations météo

réclame
Mon MeteoGroup
Polientes, Espagne (8033): Température de l'air & dewpoint: 01.08.2020 23:00:00 - 07.08.2020 23:00:00 (CEST)Polientes, Espagne (8033): Vitesse du vent & gusts: 01.08.2020 23:00:00 - 07.08.2020 23:00:00 (CEST)Polientes, Espagne (8033): Direction du vent: 01.08.2020 23:00:00 - 07.08.2020 23:00:00 (CEST)Polientes, Espagne (8033): Quantités de précipitations: 01.08.2020 23:00:00 - 07.08.2020 23:00:00 (CEST)
Date & Time tt [°C] td [°C] ff [km/h] ff [knt] fx [km/h] fx [knt] dd rr [mm]
07.08.2020 23:00:00 - - - - - - - -
07.08.2020 22:00:00 20,7 14,3 5 3 16 9 ENE 0,0
07.08.2020 21:00:00 22,5 14,9 6 3 24 13 E 0,0
07.08.2020 20:00:00 24,6 15,0 8 5 38 21 ENE -
07.08.2020 19:00:00 26,0 14,4 14 7 44 24 NE 0,0
07.08.2020 18:00:00 32,0 14,1 13 7 31 17 ENE 0,0
07.08.2020 17:00:00 38,1 9,7 12 6 34 19 SW 0,0
07.08.2020 16:00:00 38,4 9,9 11 6 34 18 SSW 0,0
07.08.2020 15:00:00 37,7 10,2 11 6 24 13 SW 0,0
07.08.2020 14:00:00 37,3 10,5 4 2 23 13 S -
07.08.2020 13:00:00 33,9 11,7 3 2 12 6 SSW 0,0
07.08.2020 12:00:00 30,6 13,4 2 1 8 4 E 0,0
07.08.2020 11:00:00 24,8 12,1 0 0 0 0 N 0,0
07.08.2020 10:00:00 19,8 13,3 0 0 0 0 N 0,0
07.08.2020 09:00:00 15,3 14,0 0 0 0 0 N 0,0
07.08.2020 08:00:00 13,6 12,5 0 0 0 0 N -
07.08.2020 07:00:00 13,5 12,2 0 0 0 0 N 0,0
07.08.2020 06:00:00 14,3 13,1 0 0 0 0 N 0,0
07.08.2020 05:00:00 14,7 13,3 0 0 0 0 N 0,0
07.08.2020 04:00:00 15,9 14,2 0 0 0 0 N 0,0
07.08.2020 03:00:00 16,8 14,8 0 0 0 0 N 0,0
07.08.2020 02:00:00 18,0 15,3 0 0 3 1 N -
07.08.2020 01:00:00 19,2 14,9 0 0 5 3 NNE 0,0
07.08.2020 00:00:00 20,4 15,0 0 0 5 3 N 0,0
06.08.2020 23:00:00 22,6 15,0 0 0 2 1 N 0,0
06.08.2020 22:00:00 26,1 14,9 1 0 11 6 NE 0,0
06.08.2020 21:00:00 29,3 13,1 4 2 17 9 ENE 0,0
06.08.2020 20:00:00 33,6 10,9 3 1 21 12 NNE -
06.08.2020 19:00:00 35,7 6,8 9 5 24 13 WSW 0,0
06.08.2020 18:00:00 35,9 7,0 7 4 24 13 SW 0,0
06.08.2020 17:00:00 36,6 7,6 8 5 28 15 SSW 0,0
06.08.2020 16:00:00 36,2 8,1 9 5 22 12 SW 0,0
06.08.2020 15:00:00 35,2 8,1 3 2 14 8 E 0,0
06.08.2020 14:00:00 33,7 9,0 3 2 12 7 S -
06.08.2020 13:00:00 29,8 8,3 4 2 9 5 SE 0,0
06.08.2020 12:00:00 24,6 7,3 3 2 7 4 SSW 0,0
06.08.2020 11:00:00 20,0 7,4 2 1 8 4 S 0,0
06.08.2020 10:00:00 15,8 9,2 0 0 0 0 N 0,0
06.08.2020 09:00:00 10,1 8,4 0 0 0 0 N 0,0
06.08.2020 08:00:00 7,8 6,5 0 0 0 0 N -
06.08.2020 07:00:00 7,8 6,4 0 0 0 0 N 0,0
06.08.2020 06:00:00 8,2 6,5 0 0 0 0 N 0,0
06.08.2020 05:00:00 9,0 6,8 0 0 0 0 N 0,0
06.08.2020 04:00:00 9,9 7,0 0 0 0 0 N 0,0
06.08.2020 03:00:00 10,7 6,8 0 0 0 0 N 0,0
06.08.2020 02:00:00 12,0 6,2 0 0 0 0 N -
06.08.2020 01:00:00 13,4 5,6 0 0 5 3 NNW 0,0
06.08.2020 00:00:00 14,9 6,7 2 1 5 3 N 0,0
05.08.2020 23:00:00 16,6 9,0 1 1 5 3 N 0,0
05.08.2020 22:00:00 20,1 7,8 2 1 12 6 NE 0,0
05.08.2020 21:00:00 23,4 6,7 5 3 24 13 ENE 0,0
05.08.2020 20:00:00 26,8 5,6 10 5 25 13 NE -
05.08.2020 19:00:00 29,1 6,4 11 6 26 14 NE 0,0
05.08.2020 18:00:00 29,6 7,4 10 5 32 17 NE 0,0
05.08.2020 17:00:00 30,9 7,4 10 5 27 15 NE 0,0
05.08.2020 16:00:00 31,5 5,8 10 5 25 13 NNE 0,0
05.08.2020 15:00:00 32,2 7,1 4 2 15 8 ENE 0,0
05.08.2020 14:00:00 31,3 5,0 4 2 10 6 SE -
05.08.2020 13:00:00 26,7 10,8 3 2 8 4 SSW 0,0
05.08.2020 12:00:00 21,4 9,9 2 1 8 4 SSW 0,0
05.08.2020 11:00:00 14,6 11,0 2 1 8 4 SE 0,0
05.08.2020 10:00:00 11,7 10,9 3 2 6 4 SW 0,0
05.08.2020 09:00:00 10,9 10,2 0 0 4 2 S 0,0
05.08.2020 08:00:00 9,7 8,9 0 0 5 3 NNE -
05.08.2020 07:00:00 9,4 8,7 1 1 6 3 NNW 0,0
05.08.2020 06:00:00 9,8 8,9 0 0 3 2 NNW 0,0
05.08.2020 05:00:00 10,7 9,8 0 0 3 1 SW 0,0
05.08.2020 04:00:00 10,2 9,2 0 0 2 1 N 0,0
05.08.2020 03:00:00 11,3 10,0 0 0 4 2 N 0,0
05.08.2020 02:00:00 12,1 10,9 0 0 4 2 NNW -
05.08.2020 01:00:00 13,4 11,7 0 0 0 0 N 0,0
05.08.2020 00:00:00 14,5 11,8 0 0 5 3 N 0,0
04.08.2020 23:00:00 16,4 12,5 0 0 10 5 N 0,0
04.08.2020 22:00:00 18,2 12,2 4 2 21 11 NNE 0,0
04.08.2020 21:00:00 20,0 10,2 4 2 15 8 NNE 0,0
04.08.2020 20:00:00 22,4 10,2 5 3 21 12 NNE -
04.08.2020 19:00:00 24,6 10,0 5 3 25 13 NNE 0,0
04.08.2020 18:00:00 25,5 9,7 4 2 25 13 NNE 0,0
04.08.2020 17:00:00 25,5 8,0 4 2 26 14 NNE 0,0
04.08.2020 16:00:00 24,9 8,0 7 4 23 12 NE 0,0
04.08.2020 15:00:00 24,4 9,2 6 3 27 15 ENE 0,0
04.08.2020 14:00:00 22,4 8,9 4 2 19 10 NNE -
04.08.2020 13:00:00 21,1 9,0 4 2 23 12 NE 0,0
04.08.2020 12:00:00 19,8 8,8 5 3 16 9 ENE 0,0
04.08.2020 11:00:00 18,8 9,6 7 4 15 8 NNE 0,0
04.08.2020 10:00:00 13,8 9,7 1 1 5 3 SSW 0,0
04.08.2020 09:00:00 10,7 9,6 3 1 6 3 SW 0,0
04.08.2020 08:00:00 9,0 8,0 0 0 0 0 N -
04.08.2020 07:00:00 9,1 8,0 0 0 4 2 N 0,0
04.08.2020 06:00:00 10,4 9,3 1 1 6 3 SSW 0,0
04.08.2020 05:00:00 10,0 8,9 4 2 8 4 ENE 0,0
04.08.2020 04:00:00 10,4 9,2 0 0 5 3 SE 0,0
04.08.2020 03:00:00 10,9 9,2 0 0 6 3 SE 0,0
04.08.2020 02:00:00 12,4 9,9 0 0 8 5 NNE -
04.08.2020 01:00:00 13,6 10,5 4 2 9 5 NNE 0,0
04.08.2020 00:00:00 12,8 9,7 0 0 9 5 N 0,0
03.08.2020 23:00:00 14,4 9,8 3 2 13 7 NE 0,0
03.08.2020 22:00:00 15,6 8,5 1 1 16 9 NNE 0,0
03.08.2020 21:00:00 17,3 7,6 4 2 22 12 NE 0,0
03.08.2020 20:00:00 20,0 8,7 6 3 22 12 ENE -
03.08.2020 19:00:00 20,4 8,4 9 5 27 14 NE 0,0
03.08.2020 18:00:00 22,4 8,1 7 4 30 16 NE 0,0
03.08.2020 17:00:00 22,1 7,4 9 5 28 15 NE 0,0
03.08.2020 16:00:00 24,1 8,5 8 4 33 18 NNE 0,0
03.08.2020 15:00:00 23,4 7,0 10 5 30 16 NE 0,0
03.08.2020 14:00:00 24,0 7,1 6 3 25 14 NE -
03.08.2020 13:00:00 22,7 6,1 8 4 22 12 ENE 0,0
03.08.2020 12:00:00 21,2 7,0 5 3 21 11 NE 0,0
03.08.2020 11:00:00 19,5 8,3 8 4 17 9 NE 0,0
03.08.2020 10:00:00 16,9 10,3 3 1 7 4 ESE 0,0
03.08.2020 09:00:00 11,9 10,6 1 0 5 3 SW 0,0
03.08.2020 08:00:00 10,1 9,2 0 0 4 2 S -
03.08.2020 07:00:00 9,6 8,7 0 0 0 0 N 0,0
03.08.2020 06:00:00 10,3 9,2 0 0 0 0 N 0,0
03.08.2020 05:00:00 11,6 10,3 0 0 3 2 N 0,0
03.08.2020 04:00:00 11,2 9,9 1 0 6 3 NNE 0,0
03.08.2020 03:00:00 12,7 10,6 0 0 12 6 NE 0,0
03.08.2020 02:00:00 14,1 11,2 2 1 10 5 ENE -
03.08.2020 01:00:00 14,4 11,0 2 1 11 6 NE 0,0
03.08.2020 00:00:00 14,6 10,8 2 1 11 6 NE 0,0
02.08.2020 23:00:00 15,0 11,0 3 2 16 9 NE 0,0
02.08.2020 22:00:00 15,1 10,6 3 2 17 9 NE 0,0
02.08.2020 21:00:00 15,9 10,6 5 3 23 12 NE 0,0
02.08.2020 20:00:00 16,8 10,4 7 4 27 15 NE -
02.08.2020 19:00:00 20,0 11,0 4 2 30 16 NE 0,0
02.08.2020 18:00:00 20,4 11,3 9 5 25 14 NE 0,0
02.08.2020 17:00:00 20,0 11,0 7 4 33 18 NE 0,0
02.08.2020 16:00:00 21,6 10,2 9 5 29 16 NE 0,0
02.08.2020 15:00:00 21,7 10,5 5 3 22 12 NE 0,0
02.08.2020 14:00:00 19,9 10,9 9 5 27 15 NNE -
02.08.2020 13:00:00 21,0 11,0 8 4 27 14 NE 0,0
02.08.2020 12:00:00 20,6 12,0 7 4 21 12 NNE 0,0
02.08.2020 11:00:00 19,4 12,6 8 4 25 13 NE 0,0
02.08.2020 10:00:00 16,7 12,8 6 3 20 11 ENE 0,0
02.08.2020 09:00:00 16,3 12,8 5 3 17 9 N 0,0
02.08.2020 08:00:00 15,7 13,1 6 4 18 10 NE -
02.08.2020 07:00:00 15,7 13,1 5 3 17 9 NE 0,0
02.08.2020 06:00:00 15,7 13,1 5 3 17 9 NE 0,0
02.08.2020 05:00:00 15,9 13,2 5 3 14 8 NE 0,0
02.08.2020 04:00:00 15,9 13,1 5 3 19 10 ENE 0,0
02.08.2020 03:00:00 16,1 13,1 5 3 16 9 NNE 0,0
02.08.2020 02:00:00 16,1 13,3 4 2 14 7 NE -
02.08.2020 01:00:00 15,9 13,2 5 3 16 9 NE 0,0
02.08.2020 00:00:00 16,1 13,3 5 3 25 14 NE 0,0
01.08.2020 23:00:00 16,2 13,2 8 4 24 13 ENE 0,0

tt = Température de l'air
td = dewpoint
ff = Vitesse du vent
fx = gusts
dd = Direction du vent
rr = Quantités de précipitations

stations d'obs. à proximité